createdAt,value
2023-05-30T00:00:47.283Z,73.57
2023-05-30T00:02:51.268Z,73.87
2023-05-30T00:04:56.336Z,73.68
2023-05-30T00:06:59.923Z,73.65
2023-05-30T00:09:04.797Z,73.94
2023-05-30T00:11:08.386Z,73.99
2023-05-30T00:13:12.148Z,73.97
2023-05-30T00:15:17.543Z,74.02
2023-05-30T00:17:22.496Z,74.03
2023-05-30T00:19:26.018Z,74.18
2023-05-30T00:21:29.915Z,74.34
2023-05-30T00:23:33.967Z,74.34
2023-05-30T00:25:38.406Z,74.26
2023-05-30T00:27:41.893Z,74.34
2023-05-30T00:29:46.354Z,74.42
2023-05-30T00:31:49.954Z,74.62
2023-05-30T00:33:55.003Z,74.74
2023-05-30T00:35:58.390Z,74.73
2023-05-30T00:38:02.152Z,74.81
2023-05-30T00:40:06.308Z,74.81
2023-05-30T00:42:10.413Z,74.82
2023-05-30T00:44:13.984Z,75.01
2023-05-30T00:46:18.370Z,74.84
2023-05-30T00:48:22.593Z,74.96
2023-05-30T00:50:27.833Z,74.88
2023-05-30T00:52:31.868Z,75.14
2023-05-30T00:54:35.460Z,75.00
2023-05-30T00:56:39.415Z,75.13
2023-05-30T00:58:42.918Z,75.05
2023-05-30T01:00:46.740Z,74.87
2023-05-30T01:02:51.376Z,74.83
2023-05-30T01:04:55.081Z,75.04
2023-05-30T01:06:59.925Z,74.98
2023-05-30T01:09:05.820Z,74.98
2023-05-30T01:11:16.653Z,74.89
2023-05-30T01:13:29.661Z,75.01
2023-05-30T01:15:35.613Z,75.06
2023-05-30T01:17:54.508Z,75.24
2023-05-30T01:20:09.053Z,75.05
2023-05-30T01:22:20.498Z,75.03
2023-05-30T01:24:33.076Z,75.05
2023-05-30T01:26:55.024Z,75.21
2023-05-30T01:29:03.952Z,75.24
2023-05-30T01:31:10.190Z,75.53
2023-05-30T01:33:15.796Z,75.46
2023-05-30T01:35:25.426Z,75.46
2023-05-30T01:37:28.782Z,75.51
2023-05-30T01:39:32.217Z,75.59
2023-05-30T01:41:42.840Z,75.66
2023-05-30T01:43:55.612Z,75.79
2023-05-30T01:46:05.546Z,75.81
2023-05-30T01:48:14.170Z,75.79
2023-05-30T01:50:19.792Z,76.05
2023-05-30T01:52:26.933Z,76.04
2023-05-30T01:54:34.288Z,75.99
2023-05-30T01:56:39.783Z,76.24
2023-05-30T01:58:44.291Z,76.32
2023-05-30T02:00:49.010Z,76.36
2023-05-30T02:02:53.994Z,76.37
2023-05-30T02:04:57.530Z,76.34
2023-05-30T02:07:01.134Z,76.38
2023-05-30T02:09:05.369Z,76.37
2023-05-30T02:11:10.914Z,76.49
2023-05-30T02:13:15.157Z,76.57
2023-05-30T02:15:18.585Z,76.65
2023-05-30T02:17:22.424Z,76.69
2023-05-30T02:19:27.273Z,76.80
2023-05-30T02:21:30.697Z,76.88
2023-05-30T02:23:34.122Z,76.85
2023-05-30T02:25:37.559Z,76.80
2023-05-30T02:27:41.686Z,77.04
2023-05-30T02:29:45.106Z,77.16
2023-05-30T02:31:48.544Z,77.31
2023-05-30T02:33:51.953Z,77.27
2023-05-30T02:35:56.846Z,77.31
2023-05-30T02:38:00.933Z,77.41
2023-05-30T02:40:05.738Z,77.50
2023-05-30T02:42:09.736Z,77.66
2023-05-30T02:44:13.158Z,77.86
2023-05-30T02:46:18.101Z,77.80
2023-05-30T02:48:22.683Z,77.85
2023-05-30T02:50:26.151Z,77.93
2023-05-30T02:52:31.610Z,78.13
2023-05-30T02:54:39.522Z,77.96
2023-05-30T02:57:22.565Z,78.08
2023-05-30T02:59:52.289Z,78.15
2023-05-30T03:01:56.382Z,78.28
2023-05-30T03:04:00.028Z,78.38
2023-05-30T03:06:13.451Z,78.41
2023-05-30T03:08:30.480Z,78.40
2023-05-30T03:10:35.016Z,78.38
2023-05-30T03:12:38.500Z,78.39
2023-05-30T03:14:42.205Z,78.65
2023-05-30T03:16:45.726Z,78.81
2023-05-30T03:18:52.413Z,78.81
2023-05-30T03:20:56.456Z,78.85
2023-05-30T03:23:01.409Z,79.13
2023-05-30T03:25:08.011Z,78.98
2023-05-30T03:27:11.499Z,79.25
2023-05-30T03:29:15.343Z,79.14
2023-05-30T03:31:20.037Z,79.26
2023-05-30T03:33:23.706Z,79.13
2023-05-30T03:35:27.336Z,79.33
2023-05-30T03:37:30.841Z,79.40
2023-05-30T03:39:34.238Z,79.54
2023-05-30T03:41:40.564Z,79.33
2023-05-30T03:43:44.216Z,79.37
2023-05-30T03:45:48.046Z,79.37
2023-05-30T03:47:51.522Z,79.45
2023-05-30T03:49:56.810Z,79.26
2023-05-30T03:52:00.464Z,79.11
2023-05-30T03:54:03.965Z,78.84
2023-05-30T03:56:08.087Z,78.60
2023-05-30T03:58:13.273Z,78.58
2023-05-30T04:00:17.681Z,78.39
2023-05-30T04:02:22.152Z,78.29
2023-05-30T04:04:25.852Z,78.13
2023-05-30T04:06:29.280Z,77.96
2023-05-30T04:08:33.864Z,77.67
2023-05-30T04:10:37.370Z,77.52
2023-05-30T04:12:41.674Z,77.16
2023-05-30T04:14:46.676Z,76.96
2023-05-30T04:16:50.721Z,76.73
2023-05-30T04:18:55.316Z,76.63
2023-05-30T04:20:59.296Z,76.75
2023-05-30T04:23:03.706Z,76.49
2023-05-30T04:25:08.118Z,76.24
2023-05-30T04:27:14.702Z,76.08
2023-05-30T04:29:20.728Z,75.99
2023-05-30T04:31:26.374Z,75.86
2023-05-30T04:33:35.734Z,75.68
2023-05-30T04:35:40.369Z,75.59
2023-05-30T04:37:45.607Z,75.55
2023-05-30T04:39:50.117Z,75.41
2023-05-30T04:41:56.135Z,75.33
2023-05-30T04:44:01.323Z,75.33
2023-05-30T04:46:11.266Z,75.18
2023-05-30T04:48:19.078Z,75.20
2023-05-30T04:50:22.771Z,74.99
2023-05-30T04:52:26.214Z,74.99
2023-05-30T04:54:30.873Z,74.91
2023-05-30T04:56:34.389Z,74.76
2023-05-30T04:58:37.784Z,74.84
2023-05-30T05:00:41.483Z,74.80
2023-05-30T05:02:47.806Z,74.73
2023-05-30T05:04:52.710Z,74.41
2023-05-30T05:06:57.509Z,74.15
2023-05-30T05:09:01.028Z,74.29
2023-05-30T05:11:05.564Z,74.44
2023-05-30T05:13:09.056Z,74.43
2023-05-30T05:15:13.358Z,74.22
2023-05-30T05:17:16.758Z,74.47
2023-05-30T05:19:20.147Z,74.42
2023-05-30T05:21:25.032Z,74.37
2023-05-30T05:23:29.409Z,74.29
2023-05-30T05:25:32.887Z,74.38
2023-05-30T05:27:36.283Z,74.41
2023-05-30T05:29:39.682Z,74.15
2023-05-30T05:31:43.505Z,74.18
2023-05-30T05:33:47.035Z,74.10
2023-05-30T05:35:51.152Z,74.19
2023-05-30T05:37:56.024Z,74.18
2023-05-30T05:40:00.488Z,73.98
2023-05-30T05:42:03.988Z,73.81
2023-05-30T05:44:07.417Z,73.86
2023-05-30T05:46:10.906Z,73.78
2023-05-30T05:48:14.676Z,73.65
2023-05-30T05:50:18.363Z,73.42
2023-05-30T05:52:22.027Z,73.37
2023-05-30T05:54:27.142Z,73.26
2023-05-30T05:56:30.712Z,73.13
2023-05-30T05:58:34.188Z,72.98
2023-05-30T06:00:37.978Z,72.74
2023-05-30T06:02:41.437Z,72.47
2023-05-30T06:04:44.987Z,72.19
2023-05-30T06:06:48.437Z,72.04
2023-05-30T06:08:55.758Z,71.81
2023-05-30T06:11:00.571Z,71.77
2023-05-30T06:13:04.016Z,71.98
2023-05-30T06:15:08.442Z,71.95
2023-05-30T06:17:11.942Z,71.71
2023-05-30T06:19:15.409Z,71.28
2023-05-30T06:21:18.931Z,70.90
2023-05-30T06:23:22.560Z,70.56
2023-05-30T06:25:27.232Z,70.25
2023-05-30T06:27:32.055Z,69.83
2023-05-30T06:29:36.428Z,69.78
2023-05-30T06:31:39.941Z,69.37
2023-05-30T06:33:43.394Z,69.15
2023-05-30T06:35:46.882Z,68.91
2023-05-30T06:37:50.371Z,68.87
2023-05-30T06:39:53.800Z,68.85
2023-05-30T06:41:57.238Z,68.89
2023-05-30T06:44:15.624Z,69.08
2023-05-30T06:46:19.130Z,69.41
2023-05-30T06:48:22.602Z,69.53
2023-05-30T06:50:26.389Z,69.51
2023-05-30T06:52:29.860Z,69.54
2023-05-30T06:54:33.982Z,69.55
2023-05-30T06:56:37.471Z,69.56
2023-05-30T06:58:40.891Z,69.68
2023-05-30T07:00:45.968Z,69.40
2023-05-30T07:02:49.449Z,69.27
2023-05-30T07:04:53.072Z,69.54
2023-05-30T07:06:57.209Z,69.30
2023-05-30T07:09:00.595Z,69.25
2023-05-30T07:11:04.026Z,69.46
2023-05-30T07:13:07.995Z,69.53
2023-05-30T07:15:12.273Z,69.70
2023-05-30T07:17:17.075Z,69.57
2023-05-30T07:19:20.597Z,69.44
2023-05-30T07:21:24.017Z,69.66
2023-05-30T07:23:27.414Z,69.43
2023-05-30T07:25:30.781Z,69.58
2023-05-30T07:27:34.267Z,69.35
2023-05-30T07:29:38.305Z,69.30
2023-05-30T07:31:41.866Z,69.49
2023-05-30T07:33:46.691Z,69.39
2023-05-30T07:35:50.280Z,69.05
2023-05-30T07:37:54.094Z,68.68
2023-05-30T07:39:57.628Z,68.62
2023-05-30T07:42:01.427Z,68.75
2023-05-30T07:44:04.916Z,68.60
2023-05-30T07:46:08.437Z,68.25
2023-05-30T07:48:11.837Z,68.49
2023-05-30T07:50:16.782Z,68.57
2023-05-30T07:52:20.199Z,68.43
2023-05-30T07:54:23.651Z,68.42
2023-05-30T07:56:27.347Z,68.17
2023-05-30T07:58:30.874Z,68.28
2023-05-30T08:00:34.798Z,68.17
2023-05-30T08:02:38.370Z,68.35
2023-05-30T08:04:42.133Z,68.77
2023-05-30T08:06:47.006Z,68.70
2023-05-30T08:08:50.470Z,68.55
2023-05-30T08:10:54.085Z,68.52
2023-05-30T08:12:57.554Z,68.62
2023-05-30T08:15:01.252Z,68.72
2023-05-30T08:17:05.672Z,68.86
2023-05-30T08:19:09.112Z,68.84
2023-05-30T08:21:12.574Z,68.60
2023-05-30T08:23:17.491Z,68.28
2023-05-30T08:25:25.194Z,68.41
2023-05-30T08:27:29.072Z,68.14
2023-05-30T08:29:34.339Z,68.01
2023-05-30T08:31:38.577Z,67.95
2023-05-30T08:33:42.019Z,68.04
2023-05-30T08:35:45.990Z,67.99
2023-05-30T08:37:49.744Z,68.17
2023-05-30T08:39:54.573Z,68.01
2023-05-30T08:41:58.022Z,68.02
2023-05-30T08:44:01.628Z,67.91
2023-05-30T08:46:07.188Z,67.56
2023-05-30T08:48:11.466Z,67.39
2023-05-30T08:50:19.005Z,67.48
2023-05-30T08:52:25.171Z,67.34
2023-05-30T08:54:42.426Z,67.30
2023-05-30T08:56:49.928Z,67.58
2023-05-30T08:58:55.014Z,67.45
2023-05-30T09:00:59.644Z,67.20
2023-05-30T09:03:06.849Z,66.85
2023-05-30T09:05:11.493Z,67.08
2023-05-30T09:07:16.883Z,66.91
2023-05-30T09:09:22.335Z,66.79
2023-05-30T09:11:26.379Z,66.90
2023-05-30T09:13:31.448Z,66.59
2023-05-30T09:15:34.965Z,66.46
2023-05-30T09:17:38.959Z,66.44
2023-05-30T09:19:42.957Z,66.16
2023-05-30T09:21:47.031Z,66.07
2023-05-30T09:23:52.174Z,66.21
2023-05-30T09:25:55.585Z,66.02
2023-05-30T09:28:04.525Z,66.28
2023-05-30T09:30:11.644Z,66.08
2023-05-30T09:32:15.107Z,65.88
2023-05-30T09:34:20.653Z,65.76
2023-05-30T09:36:26.193Z,65.38
2023-05-30T09:38:30.688Z,65.37
2023-05-30T09:40:34.129Z,65.25
2023-05-30T09:42:44.357Z,65.09
2023-05-30T09:44:55.428Z,65.06
2023-05-30T09:47:00.459Z,64.88
2023-05-30T09:49:13.212Z,64.56
2023-05-30T09:51:17.241Z,64.43
2023-05-30T09:53:20.850Z,64.51
2023-05-30T09:55:26.738Z,64.00
2023-05-30T09:57:30.806Z,64.06
2023-05-30T09:59:34.877Z,64.14
2023-05-30T10:01:40.380Z,63.62
2023-05-30T10:03:46.538Z,63.72
2023-05-30T10:05:50.361Z,63.52
2023-05-30T10:07:55.182Z,63.75
2023-05-30T10:09:59.059Z,63.41
2023-05-30T10:12:04.702Z,63.27
2023-05-30T10:14:08.799Z,63.60
2023-05-30T10:16:14.259Z,63.89
2023-05-30T10:18:18.568Z,63.73
2023-05-30T10:20:26.131Z,63.59
2023-05-30T10:22:32.143Z,63.49
2023-05-30T10:24:36.088Z,63.54
2023-05-30T10:26:44.908Z,63.55
2023-05-30T10:28:50.234Z,63.88
2023-05-30T10:30:54.534Z,63.61
2023-05-30T10:33:03.844Z,63.68
2023-05-30T10:35:12.374Z,63.71
2023-05-30T10:37:18.161Z,63.43
2023-05-30T10:39:32.507Z,63.63
2023-05-30T10:41:56.639Z,63.38
2023-05-30T10:44:12.871Z,62.82
2023-05-30T10:46:26.619Z,62.69
2023-05-30T10:48:39.786Z,62.42
2023-05-30T10:50:48.753Z,62.62
2023-05-30T10:52:55.865Z,62.15
2023-05-30T10:54:59.439Z,62.31
2023-05-30T10:57:03.751Z,62.29
2023-05-30T10:59:14.210Z,62.29
2023-05-30T11:01:28.183Z,62.53
2023-05-30T11:03:38.157Z,62.24
2023-05-30T11:05:43.258Z,62.23
2023-05-30T11:07:46.725Z,61.95
2023-05-30T11:10:09.732Z,61.56
2023-05-30T11:12:23.662Z,61.43
2023-05-30T11:14:28.078Z,61.37
2023-05-30T11:16:31.505Z,61.00
2023-05-30T11:18:42.340Z,61.01
2023-05-30T11:20:54.217Z,60.44
2023-05-30T11:23:19.134Z,60.63
2023-05-30T11:25:26.787Z,60.42
2023-05-30T11:27:30.290Z,60.78
2023-05-30T11:29:36.434Z,60.35
2023-05-30T11:31:41.324Z,60.30
2023-05-30T11:33:46.968Z,60.30
2023-05-30T11:35:51.646Z,60.58
2023-05-30T11:37:56.151Z,59.92
2023-05-30T11:40:00.097Z,59.79
2023-05-30T11:42:05.300Z,59.59
2023-05-30T11:44:10.465Z,59.94
2023-05-30T11:46:14.691Z,59.49
2023-05-30T11:48:20.905Z,58.85
2023-05-30T11:50:24.338Z,58.96
2023-05-30T11:52:27.752Z,58.70
2023-05-30T11:54:32.226Z,58.46
2023-05-30T11:56:35.661Z,58.07
2023-05-30T11:58:40.589Z,58.13
2023-05-30T12:00:44.826Z,58.79
2023-05-30T12:02:48.436Z,58.55
2023-05-30T12:05:02.425Z,58.56
2023-05-30T12:07:08.302Z,58.45
2023-05-30T12:09:12.804Z,57.69
2023-05-30T12:11:16.340Z,57.90
2023-05-30T12:13:20.738Z,57.77
2023-05-30T12:15:25.793Z,57.37
2023-05-30T12:17:29.503Z,57.18
2023-05-30T12:19:33.143Z,57.42
2023-05-30T12:21:38.154Z,57.72
2023-05-30T12:23:44.219Z,57.57
2023-05-30T12:25:51.689Z,57.39
2023-05-30T12:27:58.401Z,57.52
2023-05-30T12:30:13.218Z,57.74
2023-05-30T12:32:23.897Z,57.71
2023-05-30T12:34:27.302Z,57.55
2023-05-30T12:36:31.278Z,57.13
2023-05-30T12:38:34.866Z,57.10
2023-05-30T12:40:43.241Z,57.11
2023-05-30T12:42:46.852Z,57.19
2023-05-30T12:44:51.951Z,56.80
2023-05-30T12:47:03.408Z,56.20
2023-05-30T12:49:09.272Z,55.27
2023-05-30T12:51:12.675Z,55.25
2023-05-30T12:53:16.210Z,54.60
2023-05-30T12:55:19.580Z,54.75
2023-05-30T12:57:26.642Z,55.02
2023-05-30T12:59:30.222Z,54.46
2023-05-30T13:01:33.833Z,54.46
2023-05-30T13:03:37.716Z,54.59
2023-05-30T13:05:45.001Z,53.79
2023-05-30T13:07:48.613Z,54.35
2023-05-30T13:09:52.413Z,54.61
2023-05-30T13:11:56.039Z,54.33
2023-05-30T13:13:59.439Z,54.09
2023-05-30T13:16:02.943Z,54.33
2023-05-30T13:18:06.659Z,54.36
2023-05-30T13:20:10.677Z,54.04
2023-05-30T13:22:15.620Z,53.92
2023-05-30T13:24:19.190Z,53.84
2023-05-30T13:26:22.659Z,54.24
2023-05-30T13:28:26.070Z,54.18
2023-05-30T13:30:29.500Z,54.46
2023-05-30T13:32:32.956Z,54.30
2023-05-30T13:34:37.731Z,54.17
2023-05-30T13:36:41.386Z,53.85
2023-05-30T13:38:47.471Z,53.69
2023-05-30T13:40:50.901Z,53.78
2023-05-30T13:42:54.306Z,53.86
2023-05-30T13:44:57.819Z,53.45
2023-05-30T13:47:01.286Z,53.83
2023-05-30T13:49:07.373Z,53.83
2023-05-30T13:51:11.113Z,54.35
2023-05-30T13:53:14.583Z,53.53
2023-05-30T13:55:20.508Z,53.48
2023-05-30T13:57:24.725Z,53.68
2023-05-30T13:59:28.196Z,53.76
2023-05-30T14:01:31.967Z,54.07
2023-05-30T14:03:36.382Z,54.08
2023-05-30T14:05:39.949Z,53.56
2023-05-30T14:07:44.686Z,53.84
2023-05-30T14:09:49.010Z,53.97
2023-05-30T14:11:54.117Z,54.92
2023-05-30T14:13:57.580Z,54.75
2023-05-30T14:16:01.094Z,54.44
2023-05-30T14:18:04.861Z,53.88
2023-05-30T14:20:09.776Z,54.18
2023-05-30T14:22:14.006Z,53.08
2023-05-30T14:24:17.350Z,53.05
2023-05-30T14:26:21.621Z,53.41
2023-05-30T14:28:26.824Z,53.12
2023-05-30T14:30:31.156Z,53.21
2023-05-30T14:32:34.566Z,52.88
2023-05-30T14:34:37.956Z,52.83
2023-05-30T14:36:41.459Z,52.22
2023-05-30T14:38:44.819Z,52.79
2023-05-30T14:40:48.188Z,52.89
2023-05-30T14:42:52.094Z,51.81
2023-05-30T14:44:56.861Z,51.64
2023-05-30T14:47:00.301Z,52.09
2023-05-30T14:49:04.106Z,52.16
2023-05-30T14:51:07.436Z,51.56
2023-05-30T14:53:10.841Z,51.47
2023-05-30T14:55:14.233Z,50.81
2023-05-30T14:57:18.485Z,50.96
2023-05-30T14:59:22.162Z,50.15
2023-05-30T15:01:43.837Z,49.25
2023-05-30T15:03:49.287Z,48.95
2023-05-30T15:05:52.830Z,48.07
2023-05-30T15:07:56.294Z,47.11
2023-05-30T15:09:59.832Z,46.60
2023-05-30T15:12:03.375Z,46.29
2023-05-30T15:14:06.895Z,46.12
2023-05-30T15:16:10.315Z,46.11
2023-05-30T15:18:15.252Z,44.68
2023-05-30T15:20:19.023Z,43.89
2023-05-30T15:22:22.545Z,42.73
2023-05-30T15:24:26.180Z,42.87
2023-05-30T15:26:29.634Z,42.70
2023-05-30T15:28:33.100Z,42.57
2023-05-30T15:30:36.579Z,43.49
2023-05-30T15:32:40.070Z,42.48
2023-05-30T15:34:45.511Z,42.37
2023-05-30T15:36:49.030Z,42.58
2023-05-30T15:38:52.470Z,42.71
2023-05-30T15:40:56.160Z,43.15
2023-05-30T15:42:59.630Z,42.83
2023-05-30T15:45:03.195Z,43.16
2023-05-30T15:47:09.009Z,43.20
2023-05-30T15:49:12.716Z,43.07
2023-05-30T15:51:17.572Z,43.00
2023-05-30T15:53:21.111Z,42.78
2023-05-30T15:55:24.596Z,42.33
2023-05-30T15:57:28.056Z,41.64
2023-05-30T15:59:31.562Z,41.18
2023-05-30T16:01:35.022Z,40.61
2023-05-30T16:03:39.208Z,40.31
2023-05-30T16:05:43.378Z,39.72
2023-05-30T16:07:48.170Z,39.78
2023-05-30T16:09:51.573Z,39.25
2023-05-30T16:11:56.059Z,39.31
2023-05-30T16:13:59.395Z,39.54
2023-05-30T16:16:02.797Z,40.18
2023-05-30T16:18:06.758Z,40.63
2023-05-30T16:20:10.959Z,41.09
2023-05-30T16:22:14.636Z,41.36
2023-05-30T16:24:19.553Z,41.99
2023-05-30T16:26:23.110Z,42.29
2023-05-30T16:28:26.510Z,42.86
2023-05-30T16:30:29.873Z,43.11
2023-05-30T16:32:33.347Z,43.54
2023-05-30T16:34:36.836Z,43.77
2023-05-30T16:36:40.226Z,44.35
2023-05-30T16:38:43.638Z,44.49
2023-05-30T16:40:50.777Z,44.77
2023-05-30T16:42:54.314Z,45.03
2023-05-30T16:44:57.976Z,44.82
2023-05-30T16:47:01.699Z,44.56
2023-05-30T16:49:05.789Z,44.75
2023-05-30T16:51:09.771Z,44.88
2023-05-30T16:53:13.308Z,45.12
2023-05-30T16:55:16.954Z,45.34
2023-05-30T16:57:22.744Z,45.46
2023-05-30T16:59:26.955Z,45.26
2023-05-30T17:01:30.645Z,45.83
2023-05-30T17:03:34.861Z,46.00
2023-05-30T17:05:38.345Z,46.09
2023-05-30T17:07:41.917Z,46.13
2023-05-30T17:09:45.320Z,46.40
2023-05-30T17:11:48.704Z,46.47
2023-05-30T17:13:53.588Z,46.80
2023-05-30T17:15:57.234Z,46.88
2023-05-30T17:18:00.681Z,46.76
2023-05-30T17:20:04.443Z,46.67
2023-05-30T17:22:08.342Z,46.17
2023-05-30T17:24:11.865Z,46.38
2023-05-30T17:26:15.325Z,46.58
2023-05-30T17:28:18.693Z,46.30
2023-05-30T17:30:23.611Z,46.43
2023-05-30T17:32:27.206Z,46.60
2023-05-30T17:34:30.791Z,46.69
2023-05-30T17:36:34.202Z,45.56
2023-05-30T17:38:37.870Z,45.79
2023-05-30T17:40:41.368Z,45.75
2023-05-30T17:42:44.744Z,45.51
2023-05-30T17:44:48.129Z,45.77
2023-05-30T17:46:52.944Z,46.12
2023-05-30T17:48:56.364Z,46.08
2023-05-30T17:51:00.246Z,46.16
2023-05-30T17:53:03.844Z,46.15
2023-05-30T17:55:08.493Z,46.19
2023-05-30T17:57:11.887Z,45.90
2023-05-30T17:59:15.404Z,45.46
2023-05-30T18:01:18.823Z,44.99
2023-05-30T18:03:23.664Z,45.43
2023-05-30T18:05:28.078Z,44.87
2023-05-30T18:07:31.543Z,44.65
2023-05-30T18:09:35.007Z,44.00
2023-05-30T18:11:38.430Z,44.30
2023-05-30T18:13:41.802Z,43.12
2023-05-30T18:15:46.751Z,42.90
2023-05-30T18:17:50.268Z,42.01
2023-05-30T18:19:55.148Z,41.72
2023-05-30T18:21:58.558Z,41.66
2023-05-30T18:24:01.968Z,41.66
2023-05-30T18:26:05.480Z,41.35
2023-05-30T18:28:11.063Z,41.23
2023-05-30T18:30:15.076Z,41.05
2023-05-30T18:32:18.497Z,41.27
2023-05-30T18:34:23.170Z,41.01
2023-05-30T18:36:28.040Z,41.06
2023-05-30T18:38:31.393Z,41.09
2023-05-30T18:40:34.797Z,41.08
2023-05-30T18:42:38.195Z,41.16
2023-05-30T18:44:41.606Z,41.29
2023-05-30T18:46:45.064Z,41.59
2023-05-30T18:48:48.592Z,41.79
2023-05-30T18:50:52.072Z,41.83
2023-05-30T18:52:56.952Z,42.25
2023-05-30T18:55:00.329Z,42.44
2023-05-30T18:57:04.076Z,42.74
2023-05-30T18:59:07.466Z,43.00
2023-05-30T19:01:11.194Z,42.65
2023-05-30T19:03:14.789Z,42.97
2023-05-30T19:05:18.254Z,43.67
2023-05-30T19:07:21.740Z,44.23
2023-05-30T19:09:26.866Z,44.85
2023-05-30T19:11:30.324Z,45.19
2023-05-30T19:13:33.788Z,45.94
2023-05-30T19:15:37.293Z,46.16
2023-05-30T19:17:40.883Z,46.33
2023-05-30T19:19:44.362Z,46.57
2023-05-30T19:21:47.907Z,46.75
2023-05-30T19:23:51.311Z,47.56
2023-05-30T19:25:56.992Z,47.25
2023-05-30T19:28:07.739Z,47.47
2023-05-30T19:30:11.842Z,48.09
2023-05-30T19:32:15.527Z,48.33
2023-05-30T19:34:19.104Z,48.42
2023-05-30T19:36:22.771Z,48.55
2023-05-30T19:38:26.235Z,48.98
2023-05-30T19:40:32.938Z,48.98
2023-05-30T19:42:38.045Z,49.36
2023-05-30T19:44:41.474Z,49.43
2023-05-30T19:46:47.835Z,49.60
2023-05-30T19:48:51.727Z,49.26
2023-05-30T19:50:56.235Z,49.39
2023-05-30T19:52:59.981Z,50.11
2023-05-30T19:55:04.490Z,49.77
2023-05-30T19:57:09.012Z,49.60
2023-05-30T19:59:14.073Z,49.87
2023-05-30T20:01:17.764Z,49.91
2023-05-30T20:03:22.643Z,50.05
2023-05-30T20:05:26.530Z,50.26
2023-05-30T20:07:30.014Z,50.95
2023-05-30T20:09:33.702Z,50.94
2023-05-30T20:11:37.384Z,50.72
2023-05-30T20:13:41.714Z,50.97
2023-05-30T20:15:49.335Z,51.29
2023-05-30T20:17:57.030Z,51.77
2023-05-30T20:20:00.816Z,52.56
2023-05-30T20:22:04.336Z,52.82
2023-05-30T20:24:08.214Z,53.48
2023-05-30T20:26:11.912Z,53.69
2023-05-30T20:28:18.411Z,53.92
2023-05-30T20:30:21.990Z,54.29
2023-05-30T20:32:26.954Z,54.66
2023-05-30T20:34:30.542Z,54.94
2023-05-30T20:36:34.275Z,55.18
2023-05-30T20:38:37.729Z,55.12
2023-05-30T20:40:41.309Z,55.10
2023-05-30T20:42:44.805Z,55.63
2023-05-30T20:44:48.346Z,55.71
2023-05-30T20:46:52.705Z,55.95
2023-05-30T20:48:57.728Z,56.00
2023-05-30T20:51:01.450Z,56.26
2023-05-30T20:53:05.041Z,56.41
2023-05-30T20:55:10.727Z,56.64
2023-05-30T20:57:18.263Z,56.60
2023-05-30T20:59:21.673Z,56.84
2023-05-30T21:01:26.495Z,57.03
2023-05-30T21:03:30.287Z,57.26
2023-05-30T21:05:35.159Z,57.69
2023-05-30T21:07:40.013Z,57.87
2023-05-30T21:09:43.481Z,58.27
2023-05-30T21:11:46.940Z,58.53
2023-05-30T21:13:50.405Z,58.45
2023-05-30T21:15:54.008Z,58.41
2023-05-30T21:17:57.424Z,58.65
2023-05-30T21:20:00.880Z,59.15
2023-05-30T21:22:06.325Z,59.41
2023-05-30T21:24:09.884Z,59.60
2023-05-30T21:26:13.304Z,59.69
2023-05-30T21:28:16.937Z,59.80
2023-05-30T21:30:22.087Z,60.13
2023-05-30T21:32:27.109Z,60.40
2023-05-30T21:34:31.882Z,60.45
2023-05-30T21:36:38.299Z,60.73
2023-05-30T21:38:44.501Z,60.80
2023-05-30T21:40:47.980Z,61.08
2023-05-30T21:42:51.381Z,61.23
2023-05-30T21:44:54.738Z,61.34
2023-05-30T21:46:58.138Z,61.34
2023-05-30T21:49:01.751Z,61.62
2023-05-30T21:51:05.396Z,61.82
2023-05-30T21:53:08.945Z,62.11
2023-05-30T21:55:13.743Z,62.21
2023-05-30T21:57:17.093Z,62.42
2023-05-30T21:59:20.668Z,62.58
2023-05-30T22:01:24.139Z,62.81
2023-05-30T22:03:29.244Z,62.96
2023-05-30T22:05:32.813Z,63.00
2023-05-30T22:07:36.206Z,63.29
2023-05-30T22:09:39.649Z,63.57
2023-05-30T22:11:44.540Z,63.83
2023-05-30T22:13:47.956Z,63.80
2023-05-30T22:15:51.449Z,63.88
2023-05-30T22:17:54.927Z,64.18
2023-05-30T22:19:58.649Z,64.42
2023-05-30T22:22:04.288Z,64.69
2023-05-30T22:24:10.716Z,64.73
2023-05-30T22:26:14.131Z,65.10
2023-05-30T22:28:18.943Z,65.25
2023-05-30T22:30:22.525Z,65.50
2023-05-30T22:32:26.700Z,65.58
2023-05-30T22:34:30.216Z,65.78
2023-05-30T22:36:33.922Z,66.00
2023-05-30T22:38:37.371Z,66.07
2023-05-30T22:40:40.899Z,66.32
2023-05-30T22:42:44.305Z,66.39
2023-05-30T22:44:49.111Z,66.29
2023-05-30T22:46:52.617Z,66.47
2023-05-30T22:48:56.019Z,66.85
2023-05-30T22:50:59.566Z,66.76
2023-05-30T22:53:03.021Z,66.99
2023-05-30T22:55:07.178Z,67.14
2023-05-30T22:57:10.689Z,67.29
2023-05-30T22:59:14.625Z,67.42
2023-05-30T23:01:19.726Z,67.66
2023-05-30T23:03:23.327Z,67.86
2023-05-30T23:05:26.819Z,67.93
2023-05-30T23:07:30.216Z,68.14
2023-05-30T23:09:33.668Z,68.42
2023-05-30T23:11:37.501Z,68.50
2023-05-30T23:13:40.979Z,68.49
2023-05-30T23:15:44.617Z,68.73
2023-05-30T23:17:49.510Z,68.76
2023-05-30T23:19:52.999Z,68.98
2023-05-30T23:21:56.426Z,69.22
2023-05-30T23:23:59.861Z,69.15
2023-05-30T23:26:03.264Z,69.26
2023-05-30T23:28:06.773Z,69.48
2023-05-30T23:30:11.200Z,69.67
2023-05-30T23:32:14.670Z,69.85
2023-05-30T23:34:20.113Z,69.94
2023-05-30T23:36:23.515Z,70.12
2023-05-30T23:38:28.346Z,70.08
2023-05-30T23:40:31.783Z,70.22
2023-05-30T23:42:35.198Z,70.34
2023-05-30T23:44:38.653Z,70.51
2023-05-30T23:46:42.186Z,70.63
2023-05-30T23:48:46.353Z,70.82
2023-05-30T23:50:51.215Z,71.02
2023-05-30T23:52:54.644Z,71.01
2023-05-30T23:54:58.088Z,71.21
2023-05-30T23:57:01.536Z,71.38
2023-05-30T23:59:05.144Z,71.69
